»·PEaware :: WAT390 KSEA-KBOI

WAT390 :: KSEA-KBOI

FLIGHT INFORMATION

Flight Status: Arrived
Operator:
Walker Air Transport
More flights by this operator :: More flights under this callsign
Pilot: Ewen S. (18928)
Aircraft: AIRBUS A300B4-600
(A306)
More flights by this aircraft type
Origin: KSEA Seattle-Tacoma Intl
United States
Destination: KBOI Boise Air Terminal/Gowen
United States
More flights between these airports :: More routes between these airports
Route: +SUMMA2 SUMMA J54 BKE DEVLE KYAAN3
File this flight plan on PilotEdge
Remarks:
Altitude:
(Current/Filed)
32,000ft
Speed:
(Current/Filed)
395kts
Departed: 08-Nov-20 01:25 PM
Arrived: 08-Nov-20 02:26 PM
Distance/Time
Traveled:
346nm/1:01
Distance/Time
To Go:
Arrived

Flight Plot

Page will automatically refresh every two minutes.

Flight plan parsing failed; only flown route is shown


Map Options




Map Legend


Flown Route
Filed Route
Departure Airport
Arrival Airport
Navaid (VOR, NDB)
Fix

Horizontal Profiles

Position Reports

Time Latitude Longitude Heading Altitude Ground
Speed
08-Nov-20 12:37 47.462522 -122.300915 0 439ft 0kts
08-Nov-20 12:38 47.462522 -122.300915 0 439ft 0kts
08-Nov-20 12:39 47.462522 -122.300915 0 439ft 0kts
08-Nov-20 12:40 47.462522 -122.300915 0 439ft 0kts
08-Nov-20 12:41 47.462522 -122.300915 0 439ft 0kts
08-Nov-20 12:42 47.462522 -122.300915 0 439ft 0kts
08-Nov-20 12:43 47.462522 -122.300915 0 439ft 0kts
08-Nov-20 12:44 47.462522 -122.300915 0 439ft 0kts
08-Nov-20 12:45 47.462522 -122.300915 0 439ft 0kts
08-Nov-20 12:46 47.462522 -122.300915 0 439ft 0kts
08-Nov-20 12:47 47.462522 -122.300915 0 439ft 0kts
08-Nov-20 12:48 47.462522 -122.300915 0 439ft 0kts
08-Nov-20 12:49 47.462522 -122.300915 0 439ft 0kts
08-Nov-20 12:51 47.462522 -122.300915 0 439ft 0kts
08-Nov-20 12:52 47.462522 -122.300915 0 439ft 0kts
08-Nov-20 12:53 47.462522 -122.300915 0 439ft 0kts
08-Nov-20 12:54 47.462522 -122.300915 0 439ft 0kts
08-Nov-20 12:55 47.462522 -122.300915 0 439ft 0kts
08-Nov-20 12:56 47.462522 -122.300915 0 439ft 0kts
08-Nov-20 12:57 47.462522 -122.300915 0 439ft 0kts
08-Nov-20 12:58 47.462522 -122.300915 0 439ft 0kts
08-Nov-20 12:59 47.462522 -122.300915 0 439ft 0kts
08-Nov-20 13:00 47.462522 -122.300915 0 439ft 0kts
08-Nov-20 13:01 47.462522 -122.300915 0 439ft 0kts
08-Nov-20 13:02 47.462522 -122.300915 0 439ft 0kts
08-Nov-20 13:03 47.462105 -122.300913 0 439ft 0kts
08-Nov-20 13:04 47.461700 -122.300488 281 439ft 2kts
08-Nov-20 13:05 47.461688 -122.300323 269 439ft 0kts
08-Nov-20 13:06 47.461688 -122.300323 269 439ft 0kts
08-Nov-20 13:07 47.461688 -122.300323 269 439ft 0kts
08-Nov-20 13:07 47.461688 -122.300323 269 439ft 0kts
08-Nov-20 13:09 47.461697 -122.301587 273 439ft 7kts
08-Nov-20 13:09 47.461783 -122.302792 273 439ft 0kts
08-Nov-20 13:11 47.461785 -122.302847 273 439ft 0kts
08-Nov-20 13:11 47.461797 -122.303189 272 439ft 0kts
08-Nov-20 13:13 47.461798 -122.303269 271 439ft 0kts
08-Nov-20 13:13 47.461807 -122.303989 270 439ft 4kts
08-Nov-20 13:14 47.460457 -122.306185 179 439ft 12kts
08-Nov-20 13:15 47.456520 -122.306205 181 439ft 17kts
08-Nov-20 13:16 47.452438 -122.306267 180 439ft 16kts
08-Nov-20 13:17 47.448583 -122.306278 179 439ft 15kts
08-Nov-20 13:18 47.445039 -122.306303 180 439ft 15kts
08-Nov-20 13:19 47.441401 -122.306342 180 439ft 13kts
08-Nov-20 13:20 47.437845 -122.306389 180 439ft 12kts
08-Nov-20 13:21 47.433685 -122.305639 182 439ft 19kts
08-Nov-20 13:22 47.431769 -122.306237 224 439ft 2kts
08-Nov-20 13:23 47.433211 -122.308075 0 439ft 35kts
08-Nov-20 13:24 47.463919 -122.307313 0 984ft 201kts
08-Nov-20 13:25 47.518990 -122.303304 5 3915ft 244kts
08-Nov-20 13:26 47.565398 -122.251851 88 6334ft 255kts
08-Nov-20 13:27 47.545814 -122.144635 105 9992ft 271kts
08-Nov-20 13:28 47.521428 -122.034646 105 12011ft 284kts
08-Nov-20 13:29 47.494273 -121.912455 105 15185ft 293kts
08-Nov-20 13:30 47.467656 -121.784285 105 17714ft 335kts
08-Nov-20 13:31 47.440727 -121.649295 104 20623ft 349kts
08-Nov-20 13:32 47.412901 -121.508689 104 22949ft 370kts
08-Nov-20 13:33 47.383323 -121.358107 104 23668ft 386kts
08-Nov-20 13:34 47.310191 -121.284326 183 25226ft 416kts
08-Nov-20 13:35 47.208400 -121.371997 218 27453ft 438kts
08-Nov-20 13:36 47.107730 -121.479576 219 31220ft 449kts
08-Nov-20 13:37 46.993516 -121.553548 174 33145ft 472kts
08-Nov-20 13:38 46.887121 -121.452672 119 33157ft 465kts
08-Nov-20 13:39 46.815086 -121.315153 119 33073ft 475kts
08-Nov-20 13:40 46.730059 -121.153551 120 33023ft 472kts
08-Nov-20 13:41 46.649637 -121.001146 120 33025ft 471kts
08-Nov-20 13:42 46.569494 -120.849993 120 33025ft 469kts
08-Nov-20 13:43 46.489344 -120.700259 121 33036ft 468kts
08-Nov-20 13:44 46.409130 -120.551681 121 33045ft 466kts
08-Nov-20 13:45 46.331890 -120.409538 122 33045ft 463kts
08-Nov-20 13:46 46.254625 -120.268060 123 33048ft 465kts
08-Nov-20 13:47 46.178683 -120.129764 123 33052ft 463kts
08-Nov-20 13:48 46.098451 -119.984425 123 33044ft 462kts
08-Nov-20 13:49 46.019654 -119.842432 123 33041ft 462kts
08-Nov-20 13:50 45.939182 -119.698178 123 33041ft 462kts
08-Nov-20 13:51 45.859404 -119.555919 123 33031ft 460kts
08-Nov-20 13:52 45.779003 -119.413270 123 33031ft 460kts
08-Nov-20 13:53 45.704900 -119.282443 124 33035ft 459kts
08-Nov-20 13:54 45.621405 -119.135784 124 33035ft 457kts
08-Nov-20 13:55 45.541416 -118.995996 124 33017ft 457kts
08-Nov-20 13:56 45.461905 -118.857753 124 32920ft 454kts
08-Nov-20 13:57 45.382100 -118.719677 124 32853ft 454kts
08-Nov-20 13:58 45.302111 -118.581958 124 32853ft 453kts
08-Nov-20 13:59 45.221876 -118.444499 124 32853ft 452kts
08-Nov-20 14:00 45.142093 -118.308468 125 32874ft 453kts
08-Nov-20 14:01 45.062391 -118.173250 125 32875ft 451kts
08-Nov-20 14:02 44.981536 -118.036713 125 32872ft 452kts
08-Nov-20 14:03 44.901528 -117.902387 125 30852ft 440kts
08-Nov-20 14:04 44.815613 -117.780544 142 25967ft 460kts
08-Nov-20 14:05 44.707120 -117.685962 144 23993ft 452kts
08-Nov-20 14:06 44.602614 -117.593104 144 22367ft 438kts
08-Nov-20 14:07 44.503152 -117.504642 144 20751ft 414kts
08-Nov-20 14:08 44.407527 -117.419749 145 18885ft 404kts
08-Nov-20 14:09 44.313283 -117.336343 146 16684ft 400kts
08-Nov-20 14:10 44.223199 -117.256829 144 15999ft 353kts
08-Nov-20 14:11 44.151735 -117.168036 135 14906ft 351kts
08-Nov-20 14:12 44.079650 -117.074156 135 12713ft 358kts
08-Nov-20 14:13 44.006868 -116.979300 136 10519ft 359kts
08-Nov-20 14:14 43.945885 -116.880721 124 9709ft 302kts
08-Nov-20 14:15 43.900514 -116.788221 124 8260ft 282kts
08-Nov-20 14:16 43.857323 -116.699686 124 7989ft 284kts
08-Nov-20 14:17 43.807820 -116.617137 144 7529ft 278kts
08-Nov-20 14:18 43.748905 -116.557266 143 6672ft 236kts
08-Nov-20 14:19 43.698058 -116.503900 143 5049ft 224kts
08-Nov-20 14:20 43.647603 -116.450305 142 5017ft 228kts
08-Nov-20 14:21 43.618154 -116.383771 114 5018ft 195kts
08-Nov-20 14:22 43.597587 -116.323658 112 4140ft 157kts
08-Nov-20 14:23 43.578922 -116.269152 114 3275ft 157kts
08-Nov-20 14:24 43.562704 -116.221002 115 2856ft 78kts
08-Nov-20 14:25 43.559653 -116.209789 23 2855ft 0kts
08-Nov-20 14:26 43.559653 -116.209789 23 2855ft 0kts
08-Nov-20 14:27 43.559658 -116.209786 24 2855ft 0kts
08-Nov-20 14:28 43.562053 -116.209637 298 2855ft 14kts
08-Nov-20 14:29 43.563356 -116.213333 295 2855ft 0kts
08-Nov-20 14:30 43.565285 -116.217295 349 2855ft 15kts
08-Nov-20 14:31 43.567550 -116.216526 144 2855ft 1kts
08-Nov-20 14:32 43.566825 -116.216843 204 2855ft 0kts

Navigation Log

Ident Type
Flight plan parsing failed, navigation log unavailable